createdAt,value
2023-03-26T00:02:34.061Z,1.80
2023-03-26T00:05:20.198Z,1.70
2023-03-26T00:08:08.898Z,1.60
2023-03-26T00:10:54.819Z,1.85
2023-03-26T00:13:43.889Z,1.63
2023-03-26T00:16:31.356Z,1.80
2023-03-26T00:19:17.316Z,1.42
2023-03-26T00:22:03.876Z,1.55
2023-03-26T00:24:51.316Z,1.70
2023-03-26T00:27:38.168Z,1.40
2023-03-26T00:30:24.003Z,1.50
2023-03-26T00:33:11.959Z,1.45
2023-03-26T00:36:02.457Z,1.65
2023-03-26T00:38:49.968Z,1.70
2023-03-26T00:41:37.187Z,1.90
2023-03-26T00:44:23.627Z,1.42
2023-03-26T00:47:09.070Z,1.67
2023-03-26T00:49:55.114Z,1.60
2023-03-26T00:52:43.930Z,1.88
2023-03-26T00:56:01.677Z,1.80
2023-03-26T00:58:50.166Z,1.95
2023-03-26T01:01:59.150Z,1.80
2023-03-26T01:04:57.705Z,2.13
2023-03-26T01:07:50.425Z,1.75
2023-03-26T01:10:41.145Z,1.85
2023-03-26T01:13:27.173Z,2.00
2023-03-26T01:16:27.280Z,2.20
2023-03-26T01:19:44.831Z,1.70
2023-03-26T01:22:30.709Z,2.65
2023-03-26T01:25:17.156Z,1.73
2023-03-26T01:28:06.050Z,1.90
2023-03-26T01:31:01.458Z,2.15
2023-03-26T01:33:54.987Z,1.95
2023-03-26T01:36:55.913Z,2.70
2023-03-26T01:40:07.076Z,3.00
2023-03-26T01:43:32.310Z,2.33
2023-03-26T01:46:19.529Z,1.98
2023-03-26T01:49:12.986Z,1.65
2023-03-26T01:51:59.417Z,2.00
2023-03-26T01:54:46.735Z,1.70
2023-03-26T01:57:47.495Z,1.77
2023-03-26T02:00:37.696Z,2.00
2023-03-26T02:03:34.394Z,1.65
2023-03-26T02:06:25.865Z,1.42
2023-03-26T02:09:16.141Z,1.65
2023-03-26T02:12:03.911Z,1.70
2023-03-26T02:14:50.004Z,1.70
2023-03-26T02:17:40.402Z,1.77
2023-03-26T02:20:30.150Z,1.80
2023-03-26T02:23:15.835Z,1.92
2023-03-26T02:26:10.420Z,1.77
2023-03-26T02:29:08.731Z,1.75
2023-03-26T02:31:56.406Z,1.50
2023-03-26T02:34:42.986Z,1.58
2023-03-26T02:37:30.473Z,1.58
2023-03-26T02:40:25.185Z,1.33
2023-03-26T02:43:11.296Z,1.20
2023-03-26T02:45:58.578Z,1.50
2023-03-26T02:49:05.505Z,1.70
2023-03-26T02:51:56.193Z,1.60
2023-03-26T02:54:45.664Z,1.45
2023-03-26T02:57:41.634Z,1.35
2023-03-26T03:00:36.560Z,1.38
2023-03-26T03:03:49.357Z,1.50
2023-03-26T03:06:57.697Z,1.60
2023-03-26T03:09:46.448Z,1.63
2023-03-26T03:12:53.102Z,1.50
2023-03-26T03:15:39.188Z,1.50
2023-03-26T03:18:25.161Z,1.35
2023-03-26T03:21:11.077Z,1.33
2023-03-26T03:23:59.797Z,1.40
2023-03-26T03:26:56.891Z,1.70
2023-03-26T03:29:55.880Z,1.30
2023-03-26T03:33:02.477Z,1.40
2023-03-26T03:35:50.389Z,1.50
2023-03-26T03:38:38.404Z,1.42
2023-03-26T03:41:24.690Z,1.40
2023-03-26T03:44:10.451Z,2.45
2023-03-26T03:46:57.077Z,3.83
2023-03-26T03:49:42.983Z,2.67
2023-03-26T03:52:29.176Z,2.28
2023-03-26T03:55:15.541Z,1.80
2023-03-26T03:58:09.430Z,1.75
2023-03-26T04:01:00.950Z,2.03
2023-03-26T04:04:19.226Z,2.00
2023-03-26T04:07:17.382Z,1.98
2023-03-26T04:13:25.791Z,2.05
2023-03-26T04:16:33.730Z,2.15
2023-03-26T04:19:19.934Z,2.28
2023-03-26T04:22:06.533Z,2.53
2023-03-26T04:24:58.407Z,2.30
2023-03-26T04:27:50.663Z,1.83
2023-03-26T04:31:00.945Z,1.98
2023-03-26T04:34:09.794Z,2.00
2023-03-26T04:37:03.541Z,1.90
2023-03-26T04:39:54.462Z,2.35
2023-03-26T04:42:58.410Z,1.77
2023-03-26T04:46:04.564Z,2.47
2023-03-26T04:48:56.887Z,2.10
2023-03-26T04:51:46.238Z,2.13
2023-03-26T04:54:52.082Z,2.28
2023-03-26T04:57:46.181Z,2.30
2023-03-26T05:00:57.905Z,3.00
2023-03-26T05:03:45.962Z,2.65
2023-03-26T05:06:34.490Z,2.40
2023-03-26T05:09:26.781Z,2.45
2023-03-26T05:12:45.013Z,2.90
2023-03-26T05:15:41.389Z,2.42
2023-03-26T05:18:32.420Z,2.70
2023-03-26T05:21:19.827Z,2.63
2023-03-26T05:24:06.460Z,3.28
2023-03-26T05:26:52.268Z,1.90
2023-03-26T05:29:41.967Z,2.42
2023-03-26T05:32:28.279Z,2.20
2023-03-26T05:35:16.986Z,2.70
2023-03-26T05:38:03.090Z,2.38
2023-03-26T05:40:48.754Z,2.70
2023-03-26T05:43:38.001Z,2.97
2023-03-26T05:46:30.613Z,2.55
2023-03-26T05:49:18.187Z,3.05
2023-03-26T05:52:03.916Z,3.00
2023-03-26T05:55:09.601Z,3.42
2023-03-26T05:58:32.941Z,3.67
2023-03-26T06:01:38.636Z,3.42
2023-03-26T06:04:57.236Z,2.80
2023-03-26T06:08:01.324Z,4.07
2023-03-26T06:11:12.745Z,3.30
2023-03-26T06:13:58.968Z,2.05
2023-03-26T06:16:45.358Z,2.55
2023-03-26T06:19:36.920Z,2.10
2023-03-26T06:22:42.053Z,2.40
2023-03-26T06:25:51.344Z,3.00
2023-03-26T06:28:56.126Z,2.97
2023-03-26T06:32:12.503Z,1.83
2023-03-26T06:35:19.273Z,3.17
2023-03-26T06:38:05.336Z,2.10
2023-03-26T06:40:54.374Z,2.03
2023-03-26T06:43:46.454Z,2.42
2023-03-26T06:46:55.550Z,2.55
2023-03-26T06:50:00.239Z,4.47
2023-03-26T06:53:06.466Z,1.77
2023-03-26T06:56:03.319Z,1.45
2023-03-26T06:59:18.772Z,2.15
2023-03-26T07:02:24.552Z,1.30
2023-03-26T07:05:42.712Z,1.85
2023-03-26T07:08:47.913Z,1.90
2023-03-26T07:12:02.711Z,1.65
2023-03-26T07:15:20.654Z,1.77
2023-03-26T07:18:25.813Z,2.10
2023-03-26T07:21:12.925Z,1.70
2023-03-26T07:24:02.023Z,1.20
2023-03-26T07:27:17.087Z,1.35
2023-03-26T07:30:20.445Z,1.10
2023-03-26T07:34:02.443Z,1.60
2023-03-26T07:37:52.842Z,1.60
2023-03-26T07:40:38.962Z,2.70
2023-03-26T07:44:09.509Z,1.63
2023-03-26T07:46:57.244Z,2.13
2023-03-26T07:49:57.944Z,2.67
2023-03-26T07:53:04.317Z,1.20
2023-03-26T07:56:18.024Z,2.33
2023-03-26T07:59:46.047Z,1.90
2023-03-26T08:03:22.073Z,1.30
2023-03-26T08:06:26.347Z,1.73
2023-03-26T08:09:27.744Z,1.02
2023-03-26T08:13:04.749Z,0.80
2023-03-26T08:16:12.098Z,0.98
2023-03-26T08:19:19.954Z,1.10
2023-03-26T08:22:13.767Z,9.25
2023-03-26T08:28:02.455Z,61.22
2023-03-26T08:30:48.689Z,3.47
2023-03-26T08:33:38.394Z,2.25
2023-03-26T08:36:24.209Z,2.13
2023-03-26T08:39:10.099Z,3.25
2023-03-26T08:42:11.373Z,2.50
2023-03-26T08:45:23.199Z,1.95
2023-03-26T08:48:21.236Z,2.10
2023-03-26T08:51:35.042Z,35.10
2023-03-26T08:54:42.269Z,12.18
2023-03-26T08:57:41.219Z,11.70
2023-03-26T09:00:48.880Z,12.63
2023-03-26T09:03:59.166Z,5.03
2023-03-26T09:06:45.415Z,1.63
2023-03-26T09:09:50.390Z,1.45
2023-03-26T09:12:57.513Z,0.90
2023-03-26T09:16:31.771Z,1.45
2023-03-26T09:19:55.258Z,1.30
2023-03-26T09:23:03.028Z,1.73
2023-03-26T09:26:08.992Z,2.65
2023-03-26T09:29:09.100Z,3.30
2023-03-26T09:32:32.482Z,1.98
2023-03-26T09:36:01.910Z,2.10
2023-03-26T09:39:04.174Z,1.30
2023-03-26T09:42:19.292Z,1.33
2023-03-26T09:45:16.830Z,1.13
2023-03-26T09:48:20.990Z,1.20
2023-03-26T09:51:41.615Z,1.60
2023-03-26T09:54:46.531Z,1.23
2023-03-26T09:57:41.535Z,2.70
2023-03-26T10:00:28.575Z,2.00
2023-03-26T10:03:17.795Z,3.72
2023-03-26T10:06:31.772Z,1.85
2023-03-26T10:09:23.043Z,1.70
2023-03-26T10:12:24.400Z,0.93
2023-03-26T10:15:25.388Z,1.08
2023-03-26T10:18:40.026Z,2.78
2023-03-26T10:21:36.034Z,2.67
2023-03-26T10:24:41.050Z,1.90
2023-03-26T10:28:03.529Z,2.58
2023-03-26T10:31:19.698Z,3.53
2023-03-26T10:34:32.985Z,4.60
2023-03-26T10:37:52.549Z,20.67
2023-03-26T10:41:15.211Z,3.63
2023-03-26T10:44:27.420Z,8.50
2023-03-26T10:47:47.043Z,3.75
2023-03-26T10:50:53.525Z,2.10
2023-03-26T10:53:51.115Z,2.03
2023-03-26T10:56:49.416Z,1.83
2023-03-26T10:59:35.283Z,1.52
2023-03-26T11:02:29.123Z,6.35
2023-03-26T11:05:39.902Z,8.43
2023-03-26T11:08:31.636Z,5.22
2023-03-26T11:11:42.256Z,4.05
2023-03-26T11:14:35.361Z,1.90
2023-03-26T11:17:41.186Z,3.13
2023-03-26T11:21:18.044Z,6.70
2023-03-26T11:24:26.131Z,2.10
2023-03-26T11:27:49.553Z,1.60
2023-03-26T11:30:41.454Z,2.22
2023-03-26T11:33:32.602Z,2.03
2023-03-26T11:36:26.312Z,1.88
2023-03-26T11:39:15.685Z,2.63
2023-03-26T11:42:11.256Z,3.20
2023-03-26T11:45:24.353Z,1.80
2023-03-26T11:48:32.030Z,2.72
2023-03-26T11:51:36.790Z,2.08
2023-03-26T11:54:22.847Z,2.22
2023-03-26T11:57:16.878Z,1.50
2023-03-26T12:00:16.608Z,1.67
2023-03-26T12:03:02.288Z,2.33
2023-03-26T12:05:59.080Z,2.10
2023-03-26T12:08:45.055Z,1.77
2023-03-26T12:11:35.839Z,1.95
2023-03-26T12:14:25.337Z,1.70
2023-03-26T12:17:31.359Z,2.05
2023-03-26T12:20:24.937Z,1.65
2023-03-26T12:23:35.079Z,1.95
2023-03-26T12:26:37.025Z,1.75
2023-03-26T12:29:23.305Z,2.13
2023-03-26T12:32:16.005Z,2.60
2023-03-26T12:35:07.547Z,2.30
2023-03-26T12:37:55.894Z,2.92
2023-03-26T12:40:43.194Z,2.10
2023-03-26T12:44:49.799Z,4.78
2023-03-26T12:47:57.366Z,4.15
2023-03-26T12:49:55.347Z,1.90
2023-03-26T12:53:09.067Z,2.63
2023-03-26T12:56:01.666Z,4.03
2023-03-26T12:59:06.727Z,3.03
2023-03-26T13:02:06.827Z,3.35
2023-03-26T13:05:09.764Z,2.22
2023-03-26T13:07:58.392Z,2.22
2023-03-26T13:11:05.869Z,1.30
2023-03-26T13:14:03.130Z,1.75
2023-03-26T13:17:04.965Z,1.40
2023-03-26T13:19:54.009Z,2.33
2023-03-26T13:23:02.148Z,3.25
2023-03-26T13:26:33.030Z,2.10
2023-03-26T13:29:36.637Z,4.43
2023-03-26T13:32:43.091Z,3.55
2023-03-26T13:35:39.296Z,3.60
2023-03-26T13:38:37.716Z,1.85
2023-03-26T13:41:32.304Z,1.67
2023-03-26T13:44:43.504Z,3.00
2023-03-26T13:47:31.626Z,3.85
2023-03-26T13:50:31.011Z,3.22
2023-03-26T13:53:22.299Z,3.13
2023-03-26T13:56:12.130Z,2.47
2023-03-26T13:59:02.228Z,2.95
2023-03-26T14:01:57.444Z,3.20
2023-03-26T14:04:48.602Z,3.63
2023-03-26T14:07:39.319Z,3.05
2023-03-26T14:10:28.947Z,3.00
2023-03-26T14:13:36.579Z,2.10
2023-03-26T14:16:42.446Z,2.28
2023-03-26T14:19:41.772Z,2.20
2023-03-26T14:22:30.620Z,1.63
2023-03-26T14:25:56.583Z,2.70
2023-03-26T14:28:57.845Z,3.83
2023-03-26T14:31:53.910Z,2.50
2023-03-26T14:34:55.807Z,2.90
2023-03-26T14:38:21.200Z,3.97
2023-03-26T14:41:24.741Z,2.50
2023-03-26T14:44:27.852Z,3.30
2023-03-26T14:47:22.801Z,3.70
2023-03-26T14:50:50.501Z,5.32
2023-03-26T14:53:51.670Z,6.40
2023-03-26T14:57:05.187Z,5.10
2023-03-26T15:00:15.793Z,4.87
2023-03-26T15:03:17.416Z,5.25
2023-03-26T15:06:34.245Z,3.28
2023-03-26T15:09:42.679Z,2.80
2023-03-26T15:13:10.183Z,2.47
2023-03-26T15:16:09.389Z,2.95
2023-03-26T15:19:31.701Z,3.80
2023-03-26T15:22:54.117Z,6.15
2023-03-26T15:26:04.487Z,9.57
2023-03-26T15:29:05.020Z,4.40
2023-03-26T15:32:09.034Z,4.05
2023-03-26T15:35:06.058Z,5.30
2023-03-26T15:38:24.406Z,3.55
2023-03-26T15:41:47.530Z,4.10
2023-03-26T15:44:54.396Z,3.83
2023-03-26T15:47:50.012Z,4.43
2023-03-26T15:51:02.302Z,5.05
2023-03-26T15:54:20.719Z,4.40
2023-03-26T15:57:39.237Z,6.45
2023-03-26T16:00:29.130Z,6.53
2023-03-26T16:03:25.599Z,7.32
2023-03-26T16:06:15.882Z,6.53
2023-03-26T16:09:29.037Z,7.25
2023-03-26T16:12:17.902Z,5.90
2023-03-26T16:15:25.175Z,6.03
2023-03-26T16:18:12.446Z,6.65
2023-03-26T16:21:31.390Z,6.20
2023-03-26T16:24:25.051Z,9.93
2023-03-26T16:27:34.327Z,5.15
2023-03-26T16:30:30.907Z,6.18
2023-03-26T16:33:21.291Z,5.28
2023-03-26T16:36:34.805Z,6.32
2023-03-26T16:39:39.244Z,9.00
2023-03-26T16:42:25.010Z,6.88
2023-03-26T16:45:50.029Z,7.97
2023-03-26T16:48:50.083Z,10.32
2023-03-26T16:51:55.686Z,10.77
2023-03-26T16:54:50.796Z,11.07
2023-03-26T16:57:43.934Z,13.07
2023-03-26T17:01:03.995Z,11.93
2023-03-26T17:04:00.847Z,12.63
2023-03-26T17:07:01.906Z,12.38
2023-03-26T17:10:14.585Z,12.60
2023-03-26T17:13:12.071Z,11.80
2023-03-26T17:16:26.475Z,13.00
2023-03-26T17:19:15.638Z,13.18
2023-03-26T17:22:21.583Z,14.48
2023-03-26T17:25:36.950Z,13.27
2023-03-26T17:28:37.855Z,13.57
2023-03-26T17:31:36.405Z,14.43
2023-03-26T17:35:03.680Z,15.20
2023-03-26T17:37:49.835Z,15.50
2023-03-26T17:40:48.096Z,14.15
2023-03-26T17:43:44.142Z,11.35
2023-03-26T17:46:50.271Z,11.75
2023-03-26T17:49:37.537Z,8.10
2023-03-26T17:52:36.390Z,7.72
2023-03-26T17:55:27.851Z,9.52
2023-03-26T17:58:44.710Z,11.00
2023-03-26T18:01:42.879Z,12.70
2023-03-26T18:04:35.726Z,15.75
2023-03-26T18:07:49.740Z,12.98
2023-03-26T18:10:41.363Z,11.38
2023-03-26T18:14:09.308Z,28.80
2023-03-26T18:17:00.102Z,34.83
2023-03-26T18:19:56.129Z,19.33
2023-03-26T18:22:44.822Z,25.98
2023-03-26T18:25:33.922Z,23.45
2023-03-26T18:28:29.492Z,23.23
2023-03-26T18:31:26.489Z,21.20
2023-03-26T18:34:18.556Z,13.02
2023-03-26T18:37:21.128Z,11.73
2023-03-26T18:40:19.243Z,13.02
2023-03-26T18:43:06.319Z,16.52
2023-03-26T18:45:53.559Z,10.18
2023-03-26T18:48:39.718Z,7.10
2023-03-26T18:51:26.585Z,9.43
2023-03-26T18:54:19.906Z,8.07
2023-03-26T18:57:15.493Z,8.48
2023-03-26T19:00:18.655Z,7.13
2023-03-26T19:03:07.025Z,7.53
2023-03-26T19:05:56.715Z,6.75
2023-03-26T19:08:44.865Z,6.32
2023-03-26T19:11:31.042Z,6.15
2023-03-26T19:14:19.421Z,8.60
2023-03-26T19:17:07.067Z,6.47
2023-03-26T19:19:54.964Z,5.07
2023-03-26T19:22:46.276Z,5.53
2023-03-26T19:25:39.314Z,5.20
2023-03-26T19:28:33.729Z,5.65
2023-03-26T19:34:13.910Z,5.88
2023-03-26T19:37:01.938Z,5.30
2023-03-26T19:39:51.395Z,4.53
2023-03-26T19:42:43.766Z,4.30
2023-03-26T19:45:34.264Z,3.38
2023-03-26T19:48:45.331Z,3.20
2023-03-26T19:51:34.241Z,3.17
2023-03-26T19:54:20.468Z,3.10
2023-03-26T19:57:06.344Z,3.47
2023-03-26T19:59:52.282Z,3.90
2023-03-26T20:02:38.282Z,4.22
2023-03-26T20:05:27.502Z,3.40
2023-03-26T20:08:15.403Z,2.95
2023-03-26T20:11:01.443Z,3.20
2023-03-26T20:13:48.459Z,3.70
2023-03-26T20:16:35.310Z,3.58
2023-03-26T20:19:21.104Z,5.07
2023-03-26T20:22:12.505Z,5.25
2023-03-26T20:24:58.328Z,6.45
2023-03-26T20:27:55.283Z,6.32
2023-03-26T20:30:41.658Z,5.50
2023-03-26T20:33:28.000Z,5.50
2023-03-26T20:36:14.664Z,5.10
2023-03-26T20:39:22.362Z,3.60
2023-03-26T20:42:10.071Z,4.80
2023-03-26T20:44:56.754Z,4.20
2023-03-26T20:47:45.359Z,4.68
2023-03-26T20:50:35.691Z,5.13
2023-03-26T20:53:21.721Z,4.85
2023-03-26T20:56:17.775Z,4.88
2023-03-26T20:59:10.927Z,4.20
2023-03-26T21:01:58.168Z,3.28
2023-03-26T21:04:45.153Z,3.47
2023-03-26T21:07:31.336Z,3.38
2023-03-26T21:10:19.395Z,3.55
2023-03-26T21:13:32.681Z,3.20
2023-03-26T21:16:18.948Z,3.13
2023-03-26T21:19:05.709Z,3.40
2023-03-26T21:22:09.205Z,4.15
2023-03-26T21:25:17.288Z,4.22
2023-03-26T21:28:32.269Z,3.67
2023-03-26T21:31:31.124Z,3.97
2023-03-26T21:34:17.190Z,3.47
2023-03-26T21:37:03.658Z,2.90
2023-03-26T21:39:49.512Z,2.88
2023-03-26T21:42:36.202Z,2.50
2023-03-26T21:45:22.992Z,3.00
2023-03-26T21:48:10.504Z,3.40
2023-03-26T21:51:02.554Z,3.30
2023-03-26T21:53:49.003Z,4.13
2023-03-26T21:56:46.808Z,4.00
2023-03-26T21:59:39.753Z,4.97
2023-03-26T22:02:45.664Z,4.05
2023-03-26T22:05:42.037Z,3.75
2023-03-26T22:08:39.968Z,4.10
2023-03-26T22:11:26.121Z,3.45
2023-03-26T22:14:13.476Z,3.47
2023-03-26T22:16:59.222Z,4.32
2023-03-26T22:19:44.859Z,5.63
2023-03-26T22:22:30.890Z,5.45
2023-03-26T22:25:20.949Z,6.10
2023-03-26T22:28:07.103Z,5.60
2023-03-26T22:30:53.303Z,4.32
2023-03-26T22:33:43.014Z,4.22
2023-03-26T22:36:28.987Z,5.10
2023-03-26T22:39:14.778Z,5.13
2023-03-26T22:42:02.678Z,5.22
2023-03-26T22:44:48.576Z,3.42
2023-03-26T22:47:35.466Z,3.05
2023-03-26T22:50:21.982Z,3.78
2023-03-26T22:53:08.498Z,4.65
2023-03-26T22:55:54.287Z,6.10
2023-03-26T22:58:40.540Z,4.63
2023-03-26T23:01:26.487Z,3.97
2023-03-26T23:04:12.346Z,5.60
2023-03-26T23:07:17.202Z,6.80
2023-03-26T23:10:03.498Z,8.40
2023-03-26T23:12:49.851Z,10.07
2023-03-26T23:15:35.442Z,13.60
2023-03-26T23:18:22.515Z,10.55
2023-03-26T23:21:14.603Z,10.18
2023-03-26T23:24:00.493Z,8.18
2023-03-26T23:29:35.683Z,8.15
2023-03-26T23:32:25.207Z,3.30
2023-03-26T23:35:11.368Z,4.93
2023-03-26T23:37:57.102Z,6.93
2023-03-26T23:40:44.378Z,7.85
2023-03-26T23:43:54.137Z,6.85
2023-03-26T23:46:44.222Z,7.18
2023-03-26T23:49:30.135Z,6.13
2023-03-26T23:52:16.730Z,5.85
2023-03-26T23:55:02.721Z,5.95
2023-03-26T23:57:48.712Z,6.18
